Time;durP1;ratioP1;P1;durP2;ratioP2;P2;SDS_P1;SDS_P2;PMS_P1;PMS_P2;Temp;Humidity;BMP_temperature;BMP_pressure;BME280_temperature;BME280_humidity;BME280_pressure;Samples;Min_cycle;Max_cycle;Signal;HPM_P1;HPM_P2
2024/03/27 00:02:05;;;;;;;3.90;3.30;;;11.70;99.90;;;;;;5037202;28;20943;-62
2024/03/27 00:04:31;;;;;;;3.70;3.20;;;11.70;99.90;;;;;;5037776;28;20659;-62
2024/03/27 00:06:57;;;;;;;3.60;2.97;;;11.70;99.90;;;;;;5068385;28;20202;-62
2024/03/27 00:09:22;;;;;;;3.40;2.93;;;11.70;99.90;;;;;;5036925;28;20425;-62
2024/03/27 00:11:50;;;;;;;4.00;2.97;;;11.70;99.90;;;;;;5038137;28;20209;-62
2024/03/27 00:14:16;;;;;;;3.50;2.80;;;11.70;99.90;;;;;;5036703;28;20192;-62
2024/03/27 00:16:44;;;;;;;5.13;2.83;;;11.60;99.90;;;;;;5037339;28;20535;-62
2024/03/27 00:19:10;;;;;;;3.00;2.70;;;11.60;99.90;;;;;;5036905;28;20433;-62
2024/03/27 00:21:36;;;;;;;5.03;3.03;;;11.60;99.90;;;;;;5037634;28;20506;-62
2024/03/27 00:24:03;;;;;;;3.40;2.93;;;11.60;99.90;;;;;;5037896;28;20432;-62
2024/03/27 00:26:29;;;;;;;2.77;2.43;;;11.60;99.90;;;;;;5036845;28;20437;-62
2024/03/27 00:28:55;;;;;;;2.57;2.37;;;11.60;99.90;;;;;;5037737;28;20529;-62
2024/03/27 00:31:21;;;;;;;4.03;2.80;;;11.60;99.90;;;;;;5036173;28;20421;-62
2024/03/27 00:33:47;;;;;;;4.43;3.10;;;11.60;99.90;;;;;;5037429;28;20613;-62
2024/03/27 00:36:12;;;;;;;3.87;2.83;;;11.60;99.90;;;;;;5037017;28;20182;-62
2024/03/27 00:38:38;;;;;;;4.17;3.37;;;11.50;99.90;;;;;;5036775;28;20181;-62
2024/03/27 00:41:04;;;;;;;3.40;2.70;;;11.50;99.90;;;;;;5036543;28;21476;-62
2024/03/27 00:43:32;;;;;;;7.30;3.63;;;11.50;99.90;;;;;;5036944;28;20240;-62
2024/03/27 00:46:02;;;;;;;3.73;2.57;;;11.50;99.90;;;;;;5037228;28;20185;-62
2024/03/27 00:48:27;;;;;;;5.80;3.00;;;11.50;99.90;;;;;;5036782;28;20485;-62
2024/03/27 00:50:53;;;;;;;3.73;2.80;;;11.50;99.90;;;;;;5037361;28;20441;-62
2024/03/27 00:53:19;;;;;;;3.60;3.30;;;11.50;99.90;;;;;;5034528;28;20350;-62
2024/03/27 00:56:00;;;;;;;6.10;3.47;;;11.60;99.90;;;;;;5037249;28;20190;-62
2024/03/27 00:58:27;;;;;;;4.00;3.20;;;11.60;99.90;;;;;;5036544;28;20551;-62
2024/03/27 01:00:52;;;;;;;3.87;3.10;;;11.60;99.90;;;;;;5037607;28;20429;-62
2024/03/27 01:03:18;;;;;;;3.70;3.13;;;11.60;99.90;;;;;;5036013;28;21311;-62
2024/03/27 01:05:44;;;;;;;3.47;3.17;;;11.60;99.90;;;;;;5036542;28;20278;-62
2024/03/27 01:08:10;;;;;;;3.60;3.30;;;11.60;99.90;;;;;;5036463;28;20190;-62
2024/03/27 01:10:37;;;;;;;4.13;3.00;;;11.60;99.90;;;;;;5036283;28;20182;-62
2024/03/27 01:13:04;;;;;;;3.40;3.10;;;11.70;99.90;;;;;;5035995;28;20837;-62
2024/03/27 01:15:30;;;;;;;3.53;3.00;;;11.70;99.90;;;;;;5036791;28;20578;-62
2024/03/27 01:17:56;;;;;;;4.70;3.30;;;11.60;99.90;;;;;;5068221;28;20912;-62
2024/03/27 01:20:24;;;;;;;3.30;2.63;;;11.60;99.90;;;;;;5036079;28;20465;-62
2024/03/27 01:22:51;;;;;;;3.20;2.90;;;11.60;99.90;;;;;;5036260;28;20186;-62
2024/03/27 01:25:16;;;;;;;5.10;3.13;;;11.60;99.90;;;;;;5035547;28;20457;-62
2024/03/27 01:27:42;;;;;;;4.70;3.30;;;11.60;99.90;;;;;;5035882;28;20484;-62
2024/03/27 01:30:08;;;;;;;2.73;2.43;;;11.50;99.90;;;;;;5035410;28;20186;-62
2024/03/27 01:32:34;;;;;;;4.73;3.30;;;11.50;99.90;;;;;;5035736;28;20206;-62
2024/03/27 01:35:00;;;;;;;3.70;2.83;;;11.50;99.90;;;;;;5036491;28;20238;-62
2024/03/27 01:37:26;;;;;;;4.30;3.50;;;11.50;99.90;;;;;;5035278;28;20451;-62
2024/03/27 01:39:52;;;;;;;4.27;3.03;;;11.50;99.90;;;;;;5035883;28;20678;-62
2024/03/27 01:42:17;;;;;;;5.03;3.57;;;11.60;99.90;;;;;;5035738;28;20200;-62
2024/03/27 01:44:43;;;;;;;3.43;3.03;;;11.50;99.90;;;;;;5035898;28;20182;-62
2024/03/27 01:47:12;;;;;;;3.50;3.10;;;11.60;99.90;;;;;;5035345;28;20332;-62
2024/03/27 01:49:41;;;;;;;3.73;2.80;;;11.60;99.90;;;;;;5035544;28;20193;-62
2024/03/27 01:52:10;;;;;;;3.43;3.13;;;11.60;99.90;;;;;;5034961;28;20494;-62
2024/03/27 01:54:36;;;;;;;3.80;3.50;;;11.60;99.90;;;;;;5034836;28;20436;-62
2024/03/27 01:57:04;;;;;;;4.63;2.80;;;11.50;99.90;;;;;;5035422;28;20421;-62
2024/03/27 01:59:31;;;;;;;4.27;3.03;;;11.50;99.90;;;;;;5035746;28;20429;-62
2024/03/27 02:01:57;;;;;;;3.77;3.00;;;11.40;99.90;;;;;;5035628;28;20468;-62
2024/03/27 02:04:23;;;;;;;3.10;2.47;;;11.40;99.90;;;;;;5035298;28;20468;-62
2024/03/27 02:06:51;;;;;;;3.50;3.10;;;11.40;99.90;;;;;;5035673;28;20440;-62
2024/03/27 02:09:17;;;;;;;3.43;3.13;;;11.40;99.90;;;;;;5034676;28;20581;-62
2024/03/27 02:11:43;;;;;;;3.63;3.23;;;11.30;99.90;;;;;;5035400;28;20429;-62
2024/03/27 02:14:08;;;;;;;3.10;2.80;;;11.30;99.90;;;;;;5034981;28;20186;-62
2024/03/27 02:16:35;;;;;;;4.57;3.43;;;11.30;99.90;;;;;;5034387;28;20190;-62
2024/03/27 02:19:01;;;;;;;3.30;3.00;;;11.30;99.90;;;;;;5032817;28;20178;-62
2024/03/27 02:21:27;;;;;;;3.07;2.77;;;11.30;99.90;;;;;;5033715;28;20428;-62
2024/03/27 02:23:57;;;;;;;3.30;2.97;;;11.30;99.90;;;;;;5034169;28;20198;-61
2024/03/27 02:26:37;;;;;;;4.37;3.67;;;11.30;99.90;;;;;;5033535;28;20813;-62
2024/03/27 02:29:03;;;;;;;3.30;3.00;;;11.30;99.90;;;;;;5033064;28;20432;-62
2024/03/27 02:31:29;;;;;;;5.30;3.57;;;11.30;99.90;;;;;;5034006;28;20424;-62
2024/03/27 02:33:54;;;;;;;3.43;2.90;;;11.30;99.90;;;;;;5033276;28;20198;-62
2024/03/27 02:36:20;;;;;;;9.40;3.73;;;11.30;99.90;;;;;;5034192;28;20507;-62
2024/03/27 02:38:46;;;;;;;4.00;3.70;;;11.30;99.90;;;;;;5033281;28;20741;-62
2024/03/27 02:41:11;;;;;;;3.40;3.10;;;11.30;99.90;;;;;;5033421;28;20543;-62
2024/03/27 02:43:37;;;;;;;3.13;2.83;;;11.30;99.90;;;;;;5033513;28;20205;-62
2024/03/27 02:46:03;;;;;;;3.70;3.30;;;11.30;99.90;;;;;;5033385;28;20814;-63
2024/03/27 02:48:28;;;;;;;4.20;3.60;;;11.40;99.90;;;;;;5033889;28;20300;-62
2024/03/27 02:50:54;;;;;;;5.83;3.37;;;11.30;99.90;;;;;;5032990;28;20661;-62
2024/03/27 02:53:20;;;;;;;4.53;3.30;;;11.40;99.90;;;;;;5033985;28;20284;-62
2024/03/27 02:55:49;;;;;;;3.80;3.30;;;11.40;99.90;;;;;;5033612;28;20185;-62
2024/03/27 02:58:14;;;;;;;9.53;3.77;;;11.40;99.90;;;;;;5033443;28;20198;-62
2024/03/27 03:00:40;;;;;;;5.40;3.80;;;11.40;99.90;;;;;;5034819;28;20934;-62
2024/03/27 03:03:06;;;;;;;4.17;3.37;;;11.40;99.90;;;;;;5033161;28;20188;-62
2024/03/27 03:05:31;;;;;;;5.00;4.00;;;11.40;99.90;;;;;;5033999;28;20244;-64
2024/03/27 03:07:57;;;;;;;3.63;3.33;;;11.40;99.90;;;;;;5032638;28;20215;-62
2024/03/27 03:10:23;;;;;;;7.00;3.73;;;11.40;99.90;;;;;;5033754;28;20182;-62
2024/03/27 03:12:48;;;;;;;3.60;3.10;;;11.40;99.90;;;;;;5033264;28;20205;-62
2024/03/27 03:15:14;;;;;;;6.80;3.57;;;11.40;99.90;;;;;;5033880;28;20219;-62
2024/03/27 03:17:40;;;;;;;5.13;3.63;;;11.40;99.90;;;;;;5036249;28;20189;-62
2024/03/27 03:20:07;;;;;;;5.87;3.50;;;11.40;99.90;;;;;;5037371;28;20240;-62
2024/03/27 03:22:33;;;;;;;4.20;3.70;;;11.40;99.90;;;;;;5037565;28;20194;-62
2024/03/27 03:24:58;;;;;;;5.80;3.20;;;11.30;99.90;;;;;;5036862;28;20427;-62
2024/03/27 03:27:24;;;;;;;4.53;3.23;;;11.30;99.90;;;;;;5035766;28;20421;-62
2024/03/27 03:29:50;;;;;;;3.47;3.17;;;11.30;99.90;;;;;;5037591;28;20185;-62
2024/03/27 03:32:16;;;;;;;4.50;3.40;;;11.30;99.90;;;;;;5036897;28;20507;-62
2024/03/27 03:34:41;;;;;;;5.67;3.80;;;11.30;99.90;;;;;;5037960;28;20251;-62
2024/03/27 03:37:07;;;;;;;5.37;3.50;;;11.30;99.90;;;;;;5036565;28;20182;-62
2024/03/27 03:39:33;;;;;;;3.63;3.20;;;11.30;99.90;;;;;;5037365;28;20189;-62
2024/03/27 03:41:58;;;;;;;3.80;3.40;;;11.30;99.90;;;;;;5036787;28;20178;-62
2024/03/27 03:44:24;;;;;;;4.80;3.23;;;11.30;99.90;;;;;;5036024;28;20272;-62
2024/03/27 03:46:50;;;;;;;3.47;3.17;;;11.30;99.90;;;;;;5036542;28;20186;-62
2024/03/27 03:49:16;;;;;;;3.80;3.47;;;11.30;99.90;;;;;;5036726;28;20190;-62
2024/03/27 03:51:43;;;;;;;3.60;3.30;;;11.30;99.90;;;;;;5037189;28;20193;-62
2024/03/27 03:54:08;;;;;;;5.90;3.70;;;11.30;99.90;;;;;;5036564;28;20455;-62
2024/03/27 03:56:34;;;;;;;3.53;3.23;;;11.30;99.90;;;;;;5037345;28;20468;-62
2024/03/27 03:59:01;;;;;;;3.67;3.30;;;11.20;99.90;;;;;;5036629;28;20189;-62
2024/03/27 04:01:27;;;;;;;3.77;3.20;;;11.10;99.90;;;;;;5037175;28;20193;-62
2024/03/27 04:03:53;;;;;;;3.60;3.00;;;11.10;99.90;;;;;;5036626;28;20491;-62
2024/03/27 04:06:18;;;;;;;4.07;3.70;;;11.00;99.90;;;;;;5037305;28;20444;-62
2024/03/27 04:08:44;;;;;;;4.23;3.30;;;10.90;99.90;;;;;;5036570;28;20194;-61
2024/03/27 04:11:10;;;;;;;4.07;3.30;;;10.90;99.90;;;;;;5036879;28;20174;-62
2024/03/27 04:13:35;;;;;;;4.80;2.90;;;10.90;99.90;;;;;;5068556;28;20321;-62
2024/03/27 04:16:02;;;;;;;4.00;3.10;;;10.80;99.90;;;;;;5036636;28;20192;-62
2024/03/27 04:18:28;;;;;;;4.70;3.50;;;10.70;99.90;;;;;;5036772;28;20181;-62
2024/03/27 04:20:54;;;;;;;3.70;3.23;;;10.70;99.90;;;;;;5036269;28;20435;-62
2024/03/27 04:23:19;;;;;;;4.10;3.10;;;10.70;99.90;;;;;;5036978;28;20438;-62
2024/03/27 04:25:50;;;;;;;4.33;3.57;;;10.70;99.90;;;;;;5036256;28;20515;-61
2024/03/27 04:28:16;;;;;;;4.07;3.10;;;10.70;99.90;;;;;;5036948;28;20205;-62
2024/03/27 04:30:43;;;;;;;5.47;4.17;;;10.70;99.90;;;;;;5036635;28;21398;-61
2024/03/27 04:33:12;;;;;;;4.40;3.07;;;10.70;99.90;;;;;;5036505;28;20471;-62
2024/03/27 04:35:37;;;;;;;4.33;3.40;;;10.70;99.90;;;;;;5036217;28;20918;-62
2024/03/27 04:38:03;;;;;;;4.63;3.27;;;10.60;99.90;;;;;;5035951;28;20440;-62
2024/03/27 04:40:30;;;;;;;5.00;3.50;;;10.60;99.90;;;;;;5036777;28;20498;-62
2024/03/27 04:42:55;;;;;;;5.53;4.20;;;10.60;99.90;;;;;;5035806;28;20186;-62
2024/03/27 04:45:21;;;;;;;4.43;3.53;;;10.60;99.90;;;;;;5036894;28;20515;-62
2024/03/27 04:47:47;;;;;;;4.27;3.60;;;10.60;99.90;;;;;;5035613;28;20186;-62
2024/03/27 04:50:13;;;;;;;4.43;3.53;;;10.60;99.90;;;;;;5036542;28;20236;-62
2024/03/27 04:52:39;;;;;;;3.70;3.00;;;10.60;99.90;;;;;;5035663;28;20563;-62
2024/03/27 04:55:06;;;;;;;5.37;3.70;;;10.60;99.90;;;;;;5035974;28;20544;-62
2024/03/27 04:57:32;;;;;;;5.73;3.87;;;10.50;99.90;;;;;;5036367;28;20205;-62
2024/03/27 04:59:58;;;;;;;4.37;3.23;;;10.50;99.90;;;;;;5035859;28;20435;-62
2024/03/27 05:02:24;;;;;;;3.80;3.30;;;10.60;99.90;;;;;;5036594;28;20433;-62
2024/03/27 05:04:49;;;;;;;4.30;3.40;;;10.50;99.90;;;;;;5035777;28;20433;-63
2024/03/27 05:07:16;;;;;;;4.67;4.17;;;10.50;99.90;;;;;;5036484;28;20468;-62
2024/03/27 05:09:42;;;;;;;4.70;3.23;;;10.60;99.90;;;;;;5036064;28;20192;-62
2024/03/27 05:12:08;;;;;;;3.90;3.33;;;10.60;99.90;;;;;;5035673;28;20472;-62
2024/03/27 05:14:33;;;;;;;4.10;3.50;;;10.60;99.90;;;;;;5036133;28;20435;-62
2024/03/27 05:17:01;;;;;;;4.20;3.53;;;10.50;99.90;;;;;;5035175;28;20436;-61
2024/03/27 05:19:26;;;;;;;4.60;3.80;;;10.60;99.90;;;;;;5035551;28;20265;-62
2024/03/27 05:21:52;;;;;;;4.60;3.90;;;10.60;99.90;;;;;;5033237;28;20634;-62
2024/03/27 05:24:18;;;;;;;4.93;4.10;;;10.60;99.90;;;;;;5034684;28;20189;-62
2024/03/27 05:26:46;;;;;;;4.53;4.13;;;10.60;99.90;;;;;;5035458;28;20307;-62
2024/03/27 05:29:12;;;;;;;6.87;3.90;;;10.60;99.90;;;;;;5035621;28;20432;-62
2024/03/27 05:31:51;;;;;;;4.73;4.03;;;10.60;99.90;;;;;;5035675;28;20521;-62
2024/03/27 05:34:18;;;;;;;6.23;5.20;;;10.60;99.90;;;;;;5035275;28;20424;-62
2024/03/27 05:36:44;;;;;;;4.73;4.13;;;10.70;99.90;;;;;;5034293;28;20480;-61
2024/03/27 05:39:10;;;;;;;4.50;3.40;;;10.70;99.90;;;;;;5035025;28;20456;-62
2024/03/27 05:41:37;;;;;;;4.23;3.60;;;10.70;99.90;;;;;;5035595;28;20426;-61
2024/03/27 05:44:03;;;;;;;4.20;3.43;;;10.70;99.90;;;;;;5036035;28;20495;-62
2024/03/27 05:46:29;;;;;;;4.30;3.30;;;10.70;99.90;;;;;;5050624;28;20428;-62
2024/03/27 05:48:55;;;;;;;4.80;3.83;;;10.70;99.90;;;;;;5034813;28;20425;-62
2024/03/27 05:51:24;;;;;;;3.23;2.90;;;10.70;99.90;;;;;;5035647;28;20192;-62
2024/03/27 05:53:51;;;;;;;3.40;3.10;;;10.80;99.90;;;;;;5034739;28;20468;-62
2024/03/27 05:56:16;;;;;;;4.77;3.20;;;10.80;99.90;;;;;;5035432;28;20526;-62
2024/03/27 05:58:42;;;;;;;3.70;3.30;;;10.80;99.90;;;;;;5034873;28;20854;-62
2024/03/27 06:01:08;;;;;;;4.03;3.40;;;10.80;99.90;;;;;;5035053;28;20189;-62
2024/03/27 06:03:33;;;;;;;3.73;3.33;;;10.80;99.90;;;;;;5035593;28;20182;-62
2024/03/27 06:06:00;;;;;;;4.70;4.10;;;10.80;99.90;;;;;;5034863;28;20201;-62
2024/03/27 06:08:26;;;;;;;4.23;3.83;;;10.80;99.90;;;;;;5035699;28;20256;-62
2024/03/27 06:10:51;;;;;;;3.73;3.30;;;10.80;99.90;;;;;;5034605;28;20432;-62
2024/03/27 06:13:18;;;;;;;5.57;3.80;;;10.80;99.90;;;;;;5033548;28;21056;-62
2024/03/27 06:15:44;;;;;;;4.20;3.80;;;10.80;99.90;;;;;;5033956;28;20911;-62
2024/03/27 06:18:11;;;;;;;6.40;3.23;;;10.70;99.90;;;;;;5036368;28;20490;-62
2024/03/27 06:20:37;;;;;;;5.47;3.37;;;10.80;99.90;;;;;;5034130;28;20435;-62
2024/03/27 06:23:04;;;;;;;5.40;4.00;;;10.70;99.90;;;;;;5036697;28;20437;-62
2024/03/27 06:25:30;;;;;;;4.90;3.40;;;10.80;99.90;;;;;;5034444;28;20441;-62
2024/03/27 06:27:55;;;;;;;5.67;3.63;;;10.80;99.90;;;;;;5034543;28;20767;-62
2024/03/27 06:30:21;;;;;;;4.10;3.70;;;10.80;99.90;;;;;;5035834;28;20247;-62
2024/03/27 06:32:47;;;;;;;5.97;3.70;;;10.90;99.90;;;;;;5034280;28;20303;-62
2024/03/27 06:35:12;;;;;;;5.13;3.17;;;11.00;99.90;;;;;;5035376;28;20304;-62
2024/03/27 06:37:38;;;;;;;9.43;3.77;;;10.90;99.90;;;;;;5034244;28;20194;-62
2024/03/27 06:40:04;;;;;;;6.17;3.63;;;11.00;99.90;;;;;;5034955;28;20199;-62
2024/03/27 06:42:30;;;;;;;4.30;3.60;;;11.00;99.90;;;;;;5034961;28;20548;-62
2024/03/27 06:44:56;;;;;;;3.87;3.20;;;11.00;99.90;;;;;;5034880;28;20436;-62
2024/03/27 06:47:26;;;;;;;4.57;3.50;;;11.10;99.90;;;;;;5035524;28;20189;-62
2024/03/27 06:49:55;;;;;;;5.10;3.90;;;11.10;99.90;;;;;;5034955;28;20200;-62
2024/03/27 06:52:21;;;;;;;4.83;3.53;;;11.10;99.90;;;;;;5036944;28;20464;-62
2024/03/27 06:54:51;;;;;;;6.97;4.17;;;11.10;99.90;;;;;;5037894;28;20431;-62
2024/03/27 06:57:20;;;;;;;4.40;3.77;;;11.10;99.90;;;;;;5039247;28;20692;-62
2024/03/27 06:59:46;;;;;;;5.43;4.20;;;11.10;99.90;;;;;;5038106;28;20429;-61
2024/03/27 07:02:11;;;;;;;5.30;4.17;;;11.10;99.90;;;;;;5038818;28;20438;-61
2024/03/27 07:04:38;;;;;;;6.43;4.80;;;11.10;99.90;;;;;;5037023;28;20186;-62
2024/03/27 07:07:03;;;;;;;6.77;4.60;;;11.10;99.90;;;;;;5035026;28;20945;-62
2024/03/27 07:09:30;;;;;;;7.40;3.63;;;11.10;99.90;;;;;;5035458;28;20447;-62
2024/03/27 07:11:56;;;;;;;4.07;3.30;;;11.20;99.90;;;;;;5020988;28;20197;-61
2024/03/27 07:14:22;;;;;;;3.87;3.47;;;11.20;99.90;;;;;;5036550;28;20432;-61
2024/03/27 07:16:47;;;;;;;3.77;3.20;;;11.10;99.90;;;;;;5036856;28;20182;-61
2024/03/27 07:19:13;;;;;;;6.20;4.30;;;11.10;99.90;;;;;;5036867;28;20189;-61
2024/03/27 07:21:39;;;;;;;4.60;3.33;;;11.10;99.90;;;;;;5036900;28;20217;-61
2024/03/27 07:24:05;;;;;;;5.10;4.03;;;11.00;99.90;;;;;;5037352;28;20253;-61
2024/03/27 07:26:32;;;;;;;4.10;3.63;;;11.00;99.90;;;;;;5037440;28;20428;-61
2024/03/27 07:28:58;;;;;;;5.80;3.93;;;11.00;99.90;;;;;;5039502;28;20482;-62
2024/03/27 07:31:23;;;;;;;4.30;3.90;;;11.10;99.90;;;;;;5038645;28;20982;-61
2024/03/27 07:33:49;;;;;;;7.70;3.53;;;11.10;99.90;;;;;;5039567;28;20461;-61
2024/03/27 07:36:15;;;;;;;7.70;4.00;;;11.20;99.90;;;;;;5039017;28;20577;-61
2024/03/27 07:38:40;;;;;;;4.33;3.67;;;11.20;99.90;;;;;;5039396;28;20191;-62
2024/03/27 07:41:06;;;;;;;7.90;4.00;;;11.20;99.90;;;;;;5040136;28;20182;-62
2024/03/27 07:43:32;;;;;;;3.73;3.13;;;11.30;99.90;;;;;;5037452;28;20193;-62
2024/03/27 07:46:06;;;;;;;4.20;3.63;;;11.30;99.90;;;;;;5039148;28;20262;-62
2024/03/27 07:48:33;;;;;;;4.50;3.67;;;11.30;99.90;;;;;;5037807;28;20419;-62
2024/03/27 07:50:59;;;;;;;5.00;3.80;;;11.30;99.90;;;;;;5037902;28;20438;-62
2024/03/27 07:53:25;;;;;;;4.90;3.60;;;11.30;99.90;;;;;;5038166;28;20468;-60
2024/03/27 07:55:57;;;;;;;4.97;3.43;;;11.30;99.90;;;;;;5037774;28;20194;-62
2024/03/27 07:58:23;;;;;;;4.80;3.57;;;11.40;99.90;;;;;;5037788;28;21161;-62
2024/03/27 08:00:50;;;;;;;4.40;3.37;;;11.40;99.90;;;;;;5037373;28;20429;-62
2024/03/27 08:03:15;;;;;;;3.30;2.80;;;11.40;99.90;;;;;;5037945;28;20190;-62
2024/03/27 08:05:43;;;;;;;7.57;3.60;;;11.40;99.90;;;;;;5036951;28;20420;-62
2024/03/27 08:08:09;;;;;;;6.20;3.60;;;11.50;99.90;;;;;;5038174;28;20178;-62
2024/03/27 08:10:35;;;;;;;5.13;3.50;;;11.50;99.90;;;;;;5036897;28;20830;-62
2024/03/27 08:13:02;;;;;;;3.93;2.87;;;11.60;99.90;;;;;;5037983;28;20574;-62
2024/03/27 08:15:28;;;;;;;3.93;3.53;;;11.70;99.90;;;;;;5037401;28;20437;-62
2024/03/27 08:17:54;;;;;;;4.00;3.17;;;11.70;99.90;;;;;;5038178;28;20431;-62
2024/03/27 08:20:20;;;;;;;3.27;3.00;;;11.80;99.90;;;;;;5037422;28;20495;-62
2024/03/27 08:22:46;;;;;;;5.07;3.37;;;11.80;99.90;;;;;;5038018;28;20858;-62
2024/03/27 08:25:12;;;;;;;5.03;3.23;;;11.80;99.90;;;;;;5037946;28;20459;-62
2024/03/27 08:27:38;;;;;;;4.13;3.30;;;11.80;99.90;;;;;;5037094;28;20460;-62
2024/03/27 08:30:07;;;;;;;4.00;3.40;;;11.80;99.90;;;;;;5037984;28;20272;-62
2024/03/27 08:32:33;;;;;;;3.10;2.80;;;11.80;99.90;;;;;;5038303;28;20700;-61
2024/03/27 08:34:59;;;;;;;4.10;3.70;;;11.80;99.90;;;;;;5039264;28;20439;-62
2024/03/27 08:37:24;;;;;;;4.00;3.60;;;11.90;99.90;;;;;;5037275;28;20430;-62
2024/03/27 08:39:51;;;;;;;5.03;3.70;;;11.90;99.90;;;;;;5036394;28;20246;-62
2024/03/27 08:42:17;;;;;;;4.23;3.47;;;12.00;99.90;;;;;;5036065;28;20353;-62
2024/03/27 08:44:43;;;;;;;4.10;3.70;;;12.00;99.90;;;;;;5035541;28;20424;-62
2024/03/27 08:47:08;;;;;;;4.60;4.03;;;12.00;99.90;;;;;;5035129;28;20912;-62
2024/03/27 08:49:35;;;;;;;4.80;4.07;;;12.10;99.90;;;;;;5034982;28;20667;-62
2024/03/27 08:52:01;;;;;;;5.20;3.77;;;12.10;99.90;;;;;;5033826;28;20217;-62
2024/03/27 08:54:26;;;;;;;4.33;3.93;;;12.10;99.90;;;;;;5035008;28;20428;-62
2024/03/27 08:56:52;;;;;;;9.03;4.27;;;12.20;99.90;;;;;;5036069;28;20424;-61
2024/03/27 08:59:18;;;;;;;6.30;4.40;;;12.10;99.90;;;;;;5036026;28;20544;-62
2024/03/27 09:01:43;;;;;;;9.10;4.50;;;12.20;99.90;;;;;;5036951;28;20218;-62
2024/03/27 09:04:09;;;;;;;7.67;4.70;;;12.20;99.90;;;;;;5036775;28;20177;-62
2024/03/27 09:06:35;;;;;;;4.80;4.10;;;12.20;99.90;;;;;;5036065;28;20201;-62
2024/03/27 09:09:00;;;;;;;4.20;3.57;;;12.30;99.90;;;;;;5068211;28;20182;-62
2024/03/27 09:11:26;;;;;;;6.17;4.40;;;12.20;99.90;;;;;;5036669;28;20277;-62
2024/03/27 09:13:51;;;;;;;4.53;4.03;;;12.20;99.90;;;;;;5036702;28;20706;-62
2024/03/27 09:16:17;;;;;;;5.27;3.90;;;12.30;99.90;;;;;;5036810;28;20628;-62
2024/03/27 09:18:43;;;;;;;6.00;3.33;;;12.30;99.90;;;;;;5036903;28;20201;-62
2024/03/27 09:21:08;;;;;;;4.73;3.47;;;12.30;99.90;;;;;;5036827;28;20240;-62
2024/03/27 09:23:34;;;;;;;4.20;3.03;;;12.30;99.90;;;;;;5035816;28;20708;-62
2024/03/27 09:26:02;;;;;;;2.83;2.63;;;12.30;99.90;;;;;;5036939;28;20178;-62
2024/03/27 09:28:28;;;;;;;2.70;2.40;;;12.30;99.90;;;;;;5034656;28;20709;-63
2024/03/27 09:30:55;;;;;;;2.30;2.10;;;12.30;99.90;;;;;;5036102;28;20441;-63
2024/03/27 09:33:23;;;;;;;3.93;2.77;;;12.30;99.90;;;;;;5035353;28;20471;-62
2024/03/27 09:35:50;;;;;;;3.83;2.27;;;12.30;99.90;;;;;;5035800;28;20441;-62
2024/03/27 09:38:17;;;;;;;3.40;2.90;;;12.20;99.90;;;;;;5036245;28;20503;-62
2024/03/27 09:40:57;;;;;;;2.70;2.40;;;12.20;99.90;;;;;;5035280;28;20424;-62
2024/03/27 09:43:24;;;;;;;2.33;2.20;;;12.20;99.90;;;;;;5035532;28;20428;-62
2024/03/27 09:45:51;;;;;;;2.40;2.03;;;12.30;99.90;;;;;;5034920;28;20487;-61
2024/03/27 09:48:17;;;;;;;2.30;2.10;;;12.30;99.90;;;;;;5035571;28;20424;-61
2024/03/27 09:50:44;;;;;;;2.13;1.93;;;12.40;99.90;;;;;;5067368;28;20430;-62
2024/03/27 09:53:11;;;;;;;2.47;2.27;;;12.50;99.90;;;;;;5034977;28;20220;-62
2024/03/27 09:55:39;;;;;;;3.67;2.03;;;12.50;99.90;;;;;;5034426;28;20433;-62
2024/03/27 09:58:07;;;;;;;3.30;1.70;;;12.40;99.90;;;;;;5035229;28;20516;-61
2024/03/27 10:00:37;;;;;;;1.50;1.40;;;12.40;99.90;;;;;;5034966;28;20987;-62
2024/03/27 10:03:03;;;;;;;2.80;1.80;;;12.40;99.90;;;;;;5035781;28;20693;-62
2024/03/27 10:05:29;;;;;;;2.43;1.90;;;12.50;99.90;;;;;;5033600;28;20452;-61
2024/03/27 10:07:56;;;;;;;1.80;1.50;;;12.40;99.90;;;;;;5034843;28;22984;-62
2024/03/27 10:10:22;;;;;;;4.10;1.50;;;12.50;99.90;;;;;;5034727;28;20424;-62
2024/03/27 10:12:48;;;;;;;2.00;1.50;;;12.40;99.90;;;;;;5035166;28;20484;-61
2024/03/27 10:15:15;;;;;;;1.37;1.27;;;12.40;99.90;;;;;;5035146;28;20488;-60
2024/03/27 10:17:42;;;;;;;1.97;1.60;;;12.30;99.90;;;;;;5034645;28;20450;-62
2024/03/27 10:20:09;;;;;;;2.50;1.10;;;12.30;99.90;;;;;;5035204;28;20425;-61
2024/03/27 10:22:36;;;;;;;1.77;1.63;;;12.20;99.90;;;;;;5034095;28;20432;-61
2024/03/27 10:25:04;;;;;;;1.70;1.60;;;12.20;99.90;;;;;;5035259;28;20512;-61
2024/03/27 10:27:34;;;;;;;1.90;1.40;;;12.10;99.90;;;;;;5033453;28;20441;-62
2024/03/27 10:30:00;;;;;;;1.90;1.30;;;12.10;99.90;;;;;;5034880;28;21073;-61
2024/03/27 10:32:27;;;;;;;1.97;1.77;;;12.10;99.90;;;;;;5033750;28;20472;-62
2024/03/27 10:34:53;;;;;;;2.37;2.17;;;12.10;99.90;;;;;;5035048;28;20474;-62
2024/03/27 10:37:19;;;;;;;3.77;2.03;;;12.20;99.90;;;;;;5034271;28;21311;-62
2024/03/27 10:39:46;;;;;;;3.00;1.90;;;12.10;99.90;;;;;;5034201;28;20428;-62
2024/03/27 10:42:18;;;;;;;2.10;1.90;;;12.20;99.90;;;;;;5034731;28;20930;-61
2024/03/27 10:44:46;;;;;;;2.50;1.90;;;12.10;99.90;;;;;;5034766;28;20450;-61
2024/03/27 10:47:18;;;;;;;3.80;2.40;;;12.20;99.90;;;;;;5034371;28;20486;-62
2024/03/27 10:49:46;;;;;;;2.60;2.40;;;12.20;99.90;;;;;;5034006;28;20428;-62
2024/03/27 10:52:14;;;;;;;2.50;2.30;;;12.30;99.90;;;;;;5034263;28;20567;-61
2024/03/27 10:54:42;;;;;;;32.27;22.00;;;12.30;99.90;;;;;;5034299;28;20509;-62
2024/03/27 10:57:10;;;;;;;38.83;23.60;;;12.30;99.90;;;;;;5034794;28;20470;-62
2024/03/27 10:59:37;;;;;;;4.57;3.93;;;12.30;99.90;;;;;;5034106;28;20515;-60
2024/03/27 11:02:13;;;;;;;6.47;5.60;;;12.30;99.90;;;;;;5035199;28;20491;-61
2024/03/27 11:04:41;;;;;;;9.40;8.50;;;12.30;99.90;;;;;;5034578;28;20503;-60
2024/03/27 11:07:14;;;;;;;4.97;4.57;;;12.30;99.90;;;;;;5034401;28;20448;-61
2024/03/27 11:09:50;;;;;;;5.67;5.17;;;12.30;99.90;;;;;;5033860;28;20429;-61
2024/03/27 11:12:20;;;;;;;3.87;3.57;;;12.20;99.90;;;;;;5032373;28;20464;-61
2024/03/27 11:14:48;;;;;;;4.97;4.57;;;12.20;99.90;;;;;;5034634;28;20432;-61
2024/03/27 11:17:15;;;;;;;3.53;3.23;;;12.10;99.90;;;;;;5033533;28;20464;-61
2024/03/27 11:19:41;;;;;;;4.90;3.50;;;12.10;99.90;;;;;;5034294;28;20421;-61
2024/03/27 11:22:17;;;;;;;3.57;3.27;;;12.10;99.90;;;;;;5033196;28;20424;-61
2024/03/27 11:24:44;;;;;;;4.33;3.13;;;12.10;99.90;;;;;;5033577;28;20424;-61
2024/03/27 11:27:11;;;;;;;3.60;3.30;;;12.10;99.90;;;;;;5034065;28;20433;-61
2024/03/27 11:29:38;;;;;;;3.70;3.40;;;12.10;99.90;;;;;;5033738;28;20421;-61
2024/03/27 11:32:05;;;;;;;6.17;4.13;;;12.20;99.90;;;;;;5033841;28;20455;-61
2024/03/27 11:34:31;;;;;;;4.30;3.90;;;12.10;99.90;;;;;;5033313;28;20440;-61
2024/03/27 11:36:58;;;;;;;9.77;4.67;;;12.20;99.90;;;;;;5033870;28;20890;-61
2024/03/27 11:39:24;;;;;;;4.20;3.73;;;12.20;99.90;;;;;;5036627;28;21082;-61
2024/03/27 11:41:51;;;;;;;5.00;4.50;;;12.10;99.90;;;;;;5037853;28;20432;-61
2024/03/27 11:44:17;;;;;;;3.83;3.53;;;12.20;99.90;;;;;;5037656;28;20430;-61
2024/03/27 11:46:44;;;;;;;4.10;3.70;;;12.20;99.90;;;;;;5037525;28;20425;-61
2024/03/27 11:49:12;;;;;;;4.30;3.90;;;12.30;99.90;;;;;;5037335;28;20511;-61
2024/03/27 11:51:38;;;;;;;4.70;4.20;;;12.20;99.90;;;;;;5037238;28;20436;-61
2024/03/27 11:54:04;;;;;;;4.47;4.03;;;12.20;99.90;;;;;;5037636;28;20464;-61
2024/03/27 11:56:34;;;;;;;5.03;4.63;;;12.30;99.90;;;;;;5035328;28;20426;-61
2024/03/27 11:59:00;;;;;;;5.43;4.30;;;12.20;99.90;;;;;;5037300;28;20201;-61
2024/03/27 12:01:26;;;;;;;5.40;4.90;;;12.20;99.90;;;;;;5036961;28;20515;-61
2024/03/27 12:03:58;;;;;;;4.13;3.73;;;12.20;99.90;;;;;;5038116;28;20425;-61
2024/03/27 12:06:25;;;;;;;4.37;3.97;;;12.10;99.90;;;;;;5036759;28;20468;-61
2024/03/27 12:08:51;;;;;;;4.30;3.90;;;12.10;99.90;;;;;;5037087;28;21087;-61
2024/03/27 12:11:21;;;;;;;4.17;3.77;;;12.10;99.90;;;;;;5036619;28;20512;-61
2024/03/27 12:13:48;;;;;;;3.93;3.53;;;12.10;99.90;;;;;;5037348;28;20468;-61
2024/03/27 12:16:14;;;;;;;3.87;3.57;;;12.00;99.90;;;;;;5036677;28;20433;-61
2024/03/27 12:18:41;;;;;;;4.57;3.50;;;12.00;99.90;;;;;;5068568;28;20452;-61
2024/03/27 12:21:11;;;;;;;4.87;4.37;;;12.00;99.90;;;;;;5035429;28;20490;-61
2024/03/27 12:23:41;;;;;;;3.73;3.30;;;12.00;99.90;;;;;;5021871;28;20434;-61
2024/03/27 12:26:14;;;;;;;4.60;4.10;;;12.00;99.90;;;;;;5038682;28;20437;-61
2024/03/27 12:28:42;;;;;;;4.00;3.60;;;12.00;99.90;;;;;;5036487;28;20440;-61
2024/03/27 12:31:12;;;;;;;3.90;3.50;;;11.90;99.90;;;;;;5037366;28;20505;-61
2024/03/27 12:33:38;;;;;;;5.00;3.53;;;11.90;99.90;;;;;;5036213;28;20549;-61
2024/03/27 12:36:04;;;;;;;3.60;3.30;;;11.90;99.90;;;;;;5037272;28;20520;-61
2024/03/27 12:38:30;;;;;;;4.20;3.40;;;11.90;99.90;;;;;;5036021;28;20464;-61
2024/03/27 12:40:55;;;;;;;3.50;3.20;;;11.90;99.90;;;;;;5037389;28;21114;-61
2024/03/27 12:43:21;;;;;;;4.00;2.93;;;11.80;99.90;;;;;;5069175;28;20186;-61